createdAt,value
2019-01-27T07:24:29.963Z,20.57
2019-01-27T07:27:07.896Z,23.13
2019-01-27T07:29:45.584Z,18.53
2019-01-27T07:32:20.124Z,18.90
2019-01-27T07:35:34.851Z,26.57
2019-01-27T07:38:09.735Z,19.67
2019-01-27T07:40:53.979Z,21.27
2019-01-27T07:43:41.049Z,17.80
2019-01-27T07:46:12.953Z,20.53
2019-01-27T07:48:50.858Z,20.07
2019-01-27T07:51:31.804Z,19.40
2019-01-27T07:54:10.777Z,16.53
2019-01-27T07:56:57.436Z,16.20
2019-01-27T07:59:39.875Z,18.27
2019-01-27T08:02:17.195Z,18.97
2019-01-27T08:04:50.239Z,18.47
2019-01-27T08:07:25.247Z,19.30
2019-01-27T08:09:57.122Z,19.50
2019-01-27T08:12:34.974Z,14.90
2019-01-27T08:15:10.605Z,13.13
2019-01-27T08:17:43.203Z,13.03
2019-01-27T08:20:36.132Z,12.23
2019-01-27T08:23:33.092Z,12.93
2019-01-27T08:26:24.763Z,11.47
2019-01-27T08:28:58.723Z,12.13
2019-01-27T08:31:31.682Z,13.57
2019-01-27T08:34:11.143Z,12.63
2019-01-27T08:36:44.201Z,12.03
2019-01-27T08:39:22.097Z,12.83
2019-01-27T08:41:55.542Z,14.80
2019-01-27T08:44:30.364Z,13.83
2019-01-27T08:47:00.584Z,14.17
2019-01-27T08:49:30.816Z,14.83
2019-01-27T08:52:01.030Z,13.33
2019-01-27T08:54:31.257Z,12.83
2019-01-27T08:57:01.486Z,15.00
2019-01-27T08:59:33.779Z,13.63
2019-01-27T09:02:17.694Z,19.03
2019-01-27T09:04:50.048Z,13.67
2019-01-27T09:07:44.223Z,17.50
2019-01-27T09:10:24.589Z,16.70
2019-01-27T09:13:11.305Z,16.03
2019-01-27T09:16:03.250Z,15.57
2019-01-27T09:18:37.148Z,12.97
2019-01-27T09:21:15.888Z,13.13
2019-01-27T09:24:04.459Z,11.93
2019-01-27T09:26:37.679Z,13.67
2019-01-27T09:29:10.800Z,13.63
2019-01-27T09:32:01.870Z,18.10
2019-01-27T09:34:42.128Z,16.13
2019-01-27T09:37:19.657Z,15.10
2019-01-27T09:39:56.213Z,17.67
2019-01-27T09:42:46.308Z,19.57
2019-01-27T09:45:33.764Z,17.50
2019-01-27T09:48:24.238Z,16.97
2019-01-27T09:51:03.558Z,19.00
2019-01-27T09:53:45.237Z,43.13
2019-01-27T09:56:17.143Z,29.57
2019-01-27T09:58:53.576Z,29.57
2019-01-27T10:01:28.454Z,22.30
2019-01-27T10:04:19.269Z,29.00
2019-01-27T10:06:57.319Z,21.47
2019-01-27T10:09:35.940Z,20.87
2019-01-27T10:12:18.213Z,31.20
2019-01-27T10:14:53.387Z,22.23
2019-01-27T10:17:29.366Z,20.63
2019-01-27T10:20:02.161Z,24.83
2019-01-27T10:22:52.178Z,20.23
2019-01-27T10:25:31.512Z,14.93
2019-01-27T10:28:05.928Z,16.50
2019-01-27T10:30:47.587Z,21.10
2019-01-27T10:33:37.461Z,32.87
2019-01-27T10:36:28.396Z,39.00
2019-01-27T10:39:00.916Z,37.60
2019-01-27T10:41:34.511Z,36.27
2019-01-27T10:44:25.470Z,61.47
2019-01-27T10:47:08.065Z,29.93
2019-01-27T10:49:45.220Z,39.00
2019-01-27T10:52:34.431Z,54.23
2019-01-27T10:55:19.518Z,53.47
2019-01-27T10:58:01.318Z,29.70
2019-01-27T11:00:47.253Z,26.63
2019-01-27T11:03:42.145Z,23.77
2019-01-27T11:06:22.158Z,38.37
2019-01-27T11:08:58.938Z,32.37
2019-01-27T11:11:32.249Z,36.80
2019-01-27T11:14:13.879Z,24.30
2019-01-27T11:16:49.043Z,30.70
2019-01-27T11:19:28.992Z,25.20
2019-01-27T11:22:14.132Z,31.53
2019-01-27T11:25:05.160Z,40.37
2019-01-27T11:27:57.667Z,25.17
2019-01-27T11:30:33.609Z,61.40
2019-01-27T11:33:37.461Z,29.07
2019-01-27T11:36:18.773Z,45.60
2019-01-27T11:39:00.961Z,24.87
2019-01-27T11:41:36.624Z,19.43
2019-01-27T11:44:08.675Z,18.03
2019-01-27T11:46:41.677Z,18.33
2019-01-27T11:49:20.926Z,18.93
2019-01-27T11:51:52.796Z,18.90
2019-01-27T11:54:24.249Z,24.50
2019-01-27T11:56:55.687Z,29.43
2019-01-27T11:59:25.896Z,34.17
2019-01-27T12:01:56.135Z,31.90
2019-01-27T12:04:28.008Z,29.50
2019-01-27T12:06:58.423Z,29.60
2019-01-27T12:09:28.654Z,23.23
2019-01-27T12:12:00.091Z,21.73
2019-01-27T12:14:30.335Z,19.70
2019-01-27T12:17:01.761Z,20.17
2019-01-27T12:19:31.969Z,26.00
2019-01-27T12:22:02.210Z,34.07
2019-01-27T12:24:32.418Z,29.60
2019-01-27T12:27:02.661Z,35.27
2019-01-27T12:29:34.509Z,35.77
2019-01-27T12:32:05.554Z,29.40
2019-01-27T12:34:38.097Z,25.67
2019-01-27T12:37:08.474Z,21.33
2019-01-27T12:39:39.896Z,23.67
2019-01-27T12:42:10.163Z,35.27
2019-01-27T12:44:41.592Z,46.70
2019-01-27T12:47:14.269Z,45.67
2019-01-27T12:49:44.505Z,34.07
2019-01-27T12:52:15.946Z,21.57
2019-01-27T12:54:46.165Z,44.57
2019-01-27T12:57:17.638Z,37.33
2019-01-27T12:59:49.041Z,28.50
2019-01-27T13:02:19.282Z,76.10
2019-01-27T13:04:49.487Z,42.27
2019-01-27T13:07:19.731Z,48.40
2019-01-27T13:09:51.173Z,44.03
2019-01-27T13:12:21.702Z,42.20
2019-01-27T13:14:51.927Z,39.13
2019-01-27T13:17:22.162Z,59.83
2019-01-27T13:19:53.907Z,43.53
2019-01-27T13:22:24.476Z,44.40
2019-01-27T13:24:55.879Z,33.07
2019-01-27T13:27:28.446Z,28.73
2019-01-27T13:29:59.718Z,26.80
2019-01-27T13:32:30.875Z,25.53
2019-01-27T13:35:01.105Z,34.87
2019-01-27T13:37:32.576Z,32.27
2019-01-27T13:40:24.450Z,29.60
2019-01-27T13:42:55.765Z,24.83
2019-01-27T13:45:28.853Z,37.20
2019-01-27T13:47:59.342Z,53.93
2019-01-27T13:50:31.287Z,55.10
2019-01-27T13:53:01.530Z,46.73
2019-01-27T13:55:34.481Z,30.33
2019-01-27T13:58:04.907Z,36.23
2019-01-27T14:00:40.562Z,88.97
2019-01-27T14:03:11.041Z,60.50
2019-01-27T14:05:43.393Z,83.77
2019-01-27T14:08:16.083Z,64.17
2019-01-27T14:10:46.329Z,31.20
2019-01-27T14:13:19.282Z,45.73
2019-01-27T14:15:51.056Z,56.13
2019-01-27T14:18:22.501Z,27.90
2019-01-27T14:20:54.413Z,30.60
2019-01-27T14:23:26.430Z,33.53
2019-01-27T14:25:59.206Z,24.83
2019-01-27T14:28:29.587Z,25.17
2019-01-27T14:31:01.019Z,23.93
2019-01-27T14:33:32.156Z,19.27
2019-01-27T14:36:03.589Z,17.77
2019-01-27T14:38:33.839Z,22.47
2019-01-27T14:41:06.865Z,16.20
2019-01-27T14:43:39.303Z,22.17
2019-01-27T14:46:09.663Z,22.67
2019-01-27T14:48:40.862Z,29.47
2019-01-27T14:51:11.362Z,21.87
2019-01-27T14:53:43.158Z,14.47
2019-01-27T14:56:14.588Z,19.63
2019-01-27T14:58:47.740Z,20.80
2019-01-27T15:01:18.143Z,22.03
2019-01-27T15:03:48.627Z,22.77
2019-01-27T15:06:20.007Z,33.97
2019-01-27T15:08:50.326Z,32.13
2019-01-27T15:11:22.688Z,26.47
2019-01-27T15:13:53.239Z,41.30
2019-01-27T15:16:23.498Z,37.07
2019-01-27T15:18:54.280Z,34.30
2019-01-27T15:21:24.542Z,53.40
2019-01-27T15:23:55.095Z,57.37
2019-01-27T15:26:25.550Z,54.13
2019-01-27T15:28:55.854Z,51.80
2019-01-27T15:31:26.284Z,37.40
2019-01-27T15:33:58.083Z,37.27
2019-01-27T15:36:32.117Z,43.00
2019-01-27T15:39:04.188Z,59.23
2019-01-27T15:41:37.042Z,33.53
2019-01-27T15:44:07.382Z,35.70
2019-01-27T15:46:39.929Z,48.17
2019-01-27T15:49:11.408Z,73.67
2019-01-27T15:51:44.465Z,57.37
2019-01-27T15:54:14.951Z,29.93
2019-01-27T15:56:45.719Z,30.73
2019-01-27T15:59:17.161Z,42.67
2019-01-27T16:01:48.826Z,46.53
2019-01-27T16:04:20.859Z,32.37
2019-01-27T16:06:52.310Z,22.27
2019-01-27T16:09:22.660Z,24.37
2019-01-27T16:11:54.560Z,47.40
2019-01-27T16:14:25.301Z,56.17
2019-01-27T16:16:55.524Z,79.97
2019-01-27T16:19:26.954Z,25.73
2019-01-27T16:21:58.397Z,32.53
2019-01-27T16:24:30.005Z,32.10
2019-01-27T16:27:02.584Z,52.63
2019-01-27T16:29:38.414Z,28.07
2019-01-27T16:32:10.483Z,23.93
2019-01-27T16:34:42.262Z,21.37
2019-01-27T16:37:12.631Z,34.80
2019-01-27T16:39:44.080Z,47.43
2019-01-27T16:42:14.328Z,43.67
2019-01-27T16:44:44.811Z,28.70
2019-01-27T16:47:18.916Z,50.87
2019-01-27T16:49:47.410Z,64.43
2019-01-27T16:52:18.930Z,72.23
2019-01-27T16:54:50.316Z,33.40
2019-01-27T16:57:21.897Z,46.63
2019-01-27T16:59:52.304Z,41.13
2019-01-27T17:02:22.578Z,63.33
2019-01-27T17:04:55.615Z,35.17
2019-01-27T17:07:27.770Z,36.13
2019-01-27T17:09:59.358Z,43.13
2019-01-27T17:12:29.901Z,36.50
2019-01-27T17:15:01.325Z,26.83
2019-01-27T17:17:33.078Z,25.70
2019-01-27T17:20:04.675Z,29.93
2019-01-27T17:22:45.036Z,26.37
2019-01-27T17:25:17.134Z,23.23
2019-01-27T17:27:50.529Z,25.97
2019-01-27T17:30:23.035Z,36.50
2019-01-27T17:32:56.736Z,46.37
2019-01-27T17:35:35.823Z,40.30
2019-01-27T17:38:11.134Z,44.13
2019-01-27T17:40:44.181Z,41.47
2019-01-27T17:43:16.173Z,43.50
2019-01-27T17:45:46.578Z,33.53
2019-01-27T17:48:18.520Z,27.00
2019-01-27T17:50:53.838Z,20.57
2019-01-27T17:53:24.312Z,19.13
2019-01-27T17:55:57.306Z,20.07
2019-01-27T17:58:45.966Z,21.40
2019-01-27T18:01:35.674Z,27.30
2019-01-27T18:04:16.333Z,24.40
2019-01-27T18:07:05.523Z,21.33
2019-01-27T18:09:54.544Z,26.83
2019-01-27T18:12:32.560Z,22.93
2019-01-27T18:15:04.635Z,23.37
2019-01-27T18:17:35.056Z,24.97
2019-01-27T18:20:10.059Z,28.83
2019-01-27T18:22:42.034Z,24.33
2019-01-27T18:25:17.537Z,25.47
2019-01-27T18:27:49.383Z,20.07
2019-01-27T18:30:21.720Z,20.30
2019-01-27T18:32:52.041Z,17.40
2019-01-27T18:35:23.508Z,15.40
2019-01-27T18:37:55.238Z,37.27
2019-01-27T18:40:25.790Z,21.53
2019-01-27T18:42:57.271Z,19.23
2019-01-27T18:45:32.717Z,16.03
2019-01-27T18:48:09.909Z,22.37
2019-01-27T18:50:42.513Z,24.00
2019-01-27T18:53:17.681Z,24.27
2019-01-27T18:56:01.485Z,25.60
2019-01-27T18:58:33.391Z,31.80
2019-01-27T19:01:10.011Z,116.83
2019-01-27T19:03:47.032Z,140.00
2019-01-27T19:06:33.616Z,36.57
2019-01-27T19:09:10.034Z,54.90
2019-01-27T19:11:47.938Z,63.37
2019-01-27T19:14:22.802Z,63.63
2019-01-27T19:16:57.665Z,35.70
2019-01-27T19:19:35.482Z,23.73
2019-01-27T19:22:07.803Z,16.67
2019-01-27T19:24:42.727Z,15.13
2019-01-27T19:27:32.396Z,26.93
2019-01-27T19:30:05.524Z,17.33
2019-01-27T19:32:37.766Z,20.47
2019-01-27T19:35:20.214Z,24.60
2019-01-27T19:37:56.331Z,25.47
2019-01-27T19:40:29.411Z,19.90
2019-01-27T19:43:07.490Z,22.40
2019-01-27T19:45:44.953Z,19.53
2019-01-27T19:48:34.767Z,18.20
2019-01-27T19:51:22.930Z,20.87
2019-01-27T19:54:01.020Z,16.83
2019-01-27T19:56:39.054Z,18.00
2019-01-27T19:59:19.931Z,16.57
2019-01-27T20:01:59.267Z,17.50
2019-01-27T20:04:32.305Z,22.13
2019-01-27T20:07:06.237Z,20.30
2019-01-27T20:09:39.891Z,18.33
2019-01-27T20:12:16.100Z,16.53
2019-01-27T20:14:54.368Z,15.43
2019-01-27T20:17:27.032Z,20.83
2019-01-27T20:20:00.272Z,25.00
2019-01-27T20:22:46.945Z,19.87
2019-01-27T20:25:22.002Z,18.57
2019-01-27T20:28:03.362Z,34.50
2019-01-27T20:30:43.489Z,31.00
2019-01-27T20:33:17.111Z,34.43
2019-01-27T20:35:49.035Z,23.40
2019-01-27T20:38:22.739Z,18.43
2019-01-27T20:40:59.970Z,19.07
2019-01-27T20:43:39.314Z,20.87
2019-01-27T20:46:18.303Z,18.87
2019-01-27T20:48:55.681Z,22.03
2019-01-27T20:51:32.253Z,19.47
2019-01-27T20:54:22.226Z,15.87
2019-01-27T20:56:56.839Z,18.90
2019-01-27T20:59:29.271Z,20.77
2019-01-27T21:02:07.208Z,15.70
2019-01-27T21:04:56.685Z,17.30
2019-01-27T21:07:29.686Z,19.33
2019-01-27T21:10:05.748Z,16.70
2019-01-27T21:12:40.887Z,16.27
2019-01-27T21:15:34.178Z,16.43
2019-01-27T21:18:09.042Z,17.23
2019-01-27T21:20:39.438Z,22.20
2019-01-27T21:23:12.555Z,17.67
2019-01-27T21:25:45.502Z,20.47
2019-01-27T21:28:17.493Z,14.50
2019-01-27T21:30:51.799Z,15.90
2019-01-27T21:33:24.077Z,16.33
2019-01-27T21:35:55.516Z,15.80
2019-01-27T21:38:28.234Z,15.00
2019-01-27T21:40:59.917Z,16.27
2019-01-27T21:43:33.322Z,16.97
2019-01-27T21:46:06.794Z,16.23
2019-01-27T21:48:37.042Z,17.23
2019-01-27T21:51:10.344Z,15.73
2019-01-27T21:53:42.515Z,18.13
2019-01-27T21:56:16.258Z,16.10
2019-01-27T21:58:46.829Z,14.10
2019-01-27T22:01:18.605Z,20.97
2019-01-27T22:03:50.259Z,20.67
2019-01-27T22:06:23.673Z,14.90
2019-01-27T22:08:53.886Z,16.10
2019-01-27T22:11:24.186Z,16.53
2019-01-27T22:13:59.906Z,15.17
2019-01-27T22:16:30.419Z,15.37
2019-01-27T22:19:00.684Z,15.10
2019-01-27T22:21:31.161Z,16.73
2019-01-27T22:24:02.593Z,14.73
2019-01-27T22:26:32.848Z,14.67
2019-01-27T22:29:03.394Z,20.10
2019-01-27T22:31:33.878Z,17.77
2019-01-27T22:34:04.377Z,16.20
2019-01-27T22:36:34.703Z,14.40
2019-01-27T22:39:09.750Z,16.77
2019-01-27T22:41:41.343Z,19.77
2019-01-27T22:44:11.843Z,20.40
2019-01-27T22:46:42.524Z,14.90
2019-01-27T22:49:14.376Z,21.53
2019-01-27T22:51:44.630Z,19.83
2019-01-27T22:54:15.285Z,23.13
2019-01-27T22:56:46.445Z,20.17
2019-01-27T22:59:17.154Z,18.33
2019-01-27T23:01:49.319Z,19.70
2019-01-27T23:04:19.729Z,15.30
2019-01-27T23:06:51.119Z,22.37
2019-01-27T23:09:22.562Z,28.57
2019-01-27T23:11:54.024Z,32.07
2019-01-27T23:14:25.443Z,31.83
2019-01-27T23:16:55.686Z,23.30
2019-01-27T23:19:25.910Z,21.97
2019-01-27T23:21:57.369Z,19.40
2019-01-27T23:24:28.788Z,20.73
2019-01-27T23:26:59.041Z,18.23
2019-01-27T23:29:29.255Z,16.70
2019-01-27T23:31:59.484Z,16.30
2019-01-27T23:34:30.898Z,14.83
2019-01-27T23:37:01.145Z,15.53
2019-01-27T23:39:31.368Z,16.10
2019-01-27T23:42:02.518Z,16.60
2019-01-27T23:44:32.739Z,16.87
2019-01-27T23:47:03.002Z,16.50
2019-01-27T23:49:34.386Z,16.00
2019-01-27T23:52:04.611Z,15.50
2019-01-27T23:54:35.758Z,16.43
2019-01-27T23:57:05.992Z,15.83
2019-01-27T23:59:36.202Z,15.87
